createdAt,value
2022-10-18T00:01:33.052Z,101524.00
2022-10-18T00:04:01.970Z,101521.34
2022-10-18T00:06:31.309Z,101531.38
2022-10-18T00:09:00.348Z,101531.47
2022-10-18T00:11:30.796Z,101522.50
2022-10-18T00:14:00.038Z,101522.69
2022-10-18T00:16:29.300Z,101538.00
2022-10-18T00:18:58.173Z,101524.66
2022-10-18T00:21:27.896Z,101534.63
2022-10-18T00:23:57.014Z,101535.66
2022-10-18T00:26:28.417Z,101536.69
2022-10-18T00:29:01.457Z,101545.72
2022-10-18T00:31:33.307Z,101546.72
2022-10-18T00:34:04.931Z,101545.91
2022-10-18T00:36:35.433Z,101549.50
2022-10-18T00:39:06.510Z,101562.13
2022-10-18T00:41:38.075Z,101551.31
2022-10-18T00:44:25.039Z,101545.91
2022-10-18T00:46:56.946Z,101549.41
2022-10-18T00:49:31.527Z,101552.91
2022-10-18T00:52:05.272Z,101545.44
2022-10-18T00:54:39.003Z,101537.22
2022-10-18T00:57:08.999Z,101532.69
2022-10-18T00:59:40.549Z,101528.69
2022-10-18T01:02:10.365Z,101542.97
2022-10-18T01:04:39.542Z,101537.66
2022-10-18T01:07:14.806Z,101535.75
2022-10-18T01:09:53.531Z,101530.09
2022-10-18T01:12:30.563Z,101527.31
2022-10-18T01:15:11.666Z,101521.75
2022-10-18T01:17:52.564Z,101519.72
2022-10-18T01:20:44.538Z,101523.16
2022-10-18T01:23:20.584Z,101534.69
2022-10-18T01:25:58.305Z,101528.31
2022-10-18T01:28:44.420Z,101527.38
2022-10-18T01:31:22.006Z,101530.94
2022-10-18T01:33:58.048Z,101536.09
2022-10-18T01:36:31.757Z,101541.66
2022-10-18T01:39:03.293Z,101542.72
2022-10-18T01:41:32.822Z,101546.28
2022-10-18T01:44:05.552Z,101539.91
2022-10-18T01:46:37.527Z,101539.06
2022-10-18T01:49:07.522Z,101530.84
2022-10-18T01:51:36.998Z,101544.53
2022-10-18T01:54:06.747Z,101530.16
2022-10-18T01:56:44.831Z,101522.28
2022-10-18T01:59:42.571Z,101521.41
2022-10-18T02:02:26.301Z,101525.13
2022-10-18T02:05:02.985Z,101527.78
2022-10-18T02:07:42.641Z,101529.66
2022-10-18T02:10:16.672Z,101518.16
2022-10-18T02:12:47.880Z,101525.56
2022-10-18T02:15:20.386Z,101527.50
2022-10-18T02:17:51.639Z,101529.31
2022-10-18T02:20:25.600Z,101528.63
2022-10-18T02:22:57.546Z,101535.06
2022-10-18T02:25:30.949Z,101540.81
2022-10-18T02:28:00.681Z,101536.34
2022-10-18T02:31:30.742Z,101556.38
2022-10-18T02:34:08.338Z,101556.72
2022-10-18T02:36:43.675Z,101569.44
2022-10-18T02:39:16.356Z,101568.75
2022-10-18T02:41:45.746Z,101578.69
2022-10-18T02:44:14.698Z,101575.19
2022-10-18T02:46:44.302Z,101579.00
2022-10-18T02:49:14.776Z,101581.84
2022-10-18T02:51:44.082Z,101588.38
2022-10-18T02:54:13.051Z,101585.69
2022-10-18T02:56:42.353Z,101584.00
2022-10-18T02:59:11.869Z,101586.78
2022-10-18T03:01:41.170Z,101586.94
2022-10-18T03:04:10.249Z,101584.41
2022-10-18T03:06:41.219Z,101577.34
2022-10-18T03:09:10.852Z,101587.44
2022-10-18T03:11:40.231Z,101586.63
2022-10-18T03:14:09.220Z,101575.03
2022-10-18T03:16:38.275Z,101579.63
2022-10-18T03:19:07.327Z,101575.34
2022-10-18T03:21:36.285Z,101577.25
2022-10-18T03:24:07.587Z,101577.25
2022-10-18T03:26:36.945Z,101582.84
2022-10-18T03:29:06.713Z,101582.97
2022-10-18T03:31:35.983Z,101579.50
2022-10-18T03:34:05.144Z,101583.28
2022-10-18T03:36:34.922Z,101578.00
2022-10-18T03:39:05.539Z,101574.50
2022-10-18T03:41:34.796Z,101573.81
2022-10-18T03:44:04.128Z,101579.28
2022-10-18T03:46:33.321Z,101587.53
2022-10-18T03:49:02.409Z,101595.72
2022-10-18T03:51:31.704Z,101597.53
2022-10-18T03:54:00.789Z,101593.16
2022-10-18T03:56:31.476Z,101584.34
2022-10-18T03:59:00.586Z,101589.75
2022-10-18T04:01:29.586Z,101597.06
2022-10-18T04:03:58.877Z,101607.97
2022-10-18T04:06:28.025Z,101615.28
2022-10-18T04:08:57.385Z,101612.66
2022-10-18T04:11:26.779Z,101617.34
2022-10-18T04:13:57.169Z,101600.38
2022-10-18T04:16:26.748Z,101612.09
2022-10-18T04:18:55.664Z,101601.44
2022-10-18T04:21:24.861Z,101622.22
2022-10-18T04:23:53.863Z,101615.97
2022-10-18T04:26:23.023Z,101613.34
2022-10-18T04:28:52.233Z,101608.03
2022-10-18T04:31:22.710Z,101620.72
2022-10-18T04:33:51.821Z,101620.00
2022-10-18T04:36:20.988Z,101622.75
2022-10-18T04:38:50.064Z,101635.38
2022-10-18T04:41:19.246Z,101646.38
2022-10-18T04:43:48.454Z,101651.84
2022-10-18T04:46:17.661Z,101637.53
2022-10-18T04:48:48.132Z,101634.06
2022-10-18T04:51:17.444Z,101614.38
2022-10-18T04:53:46.445Z,101609.16
2022-10-18T04:56:15.893Z,101615.47
2022-10-18T04:58:44.884Z,101637.13
2022-10-18T05:01:14.250Z,101657.00
2022-10-18T05:03:43.257Z,101679.56
2022-10-18T05:06:14.045Z,101675.22
2022-10-18T05:08:43.250Z,101674.41
2022-10-18T05:11:12.471Z,101652.03
2022-10-18T05:13:41.673Z,101643.09
2022-10-18T05:16:11.058Z,101643.09
2022-10-18T05:18:39.929Z,101653.00
2022-10-18T05:21:09.233Z,101664.72
2022-10-18T05:23:39.676Z,101653.09
2022-10-18T05:26:10.276Z,101649.50
2022-10-18T05:28:40.864Z,101654.91
2022-10-18T05:31:12.640Z,101649.50
2022-10-18T05:33:42.421Z,101659.50
2022-10-18T05:36:12.183Z,101659.50
2022-10-18T05:38:44.180Z,101672.97
2022-10-18T05:41:13.843Z,101670.28
2022-10-18T05:43:43.031Z,101679.22
2022-10-18T05:46:15.288Z,101684.59
2022-10-18T05:48:45.458Z,101672.97
2022-10-18T05:51:14.887Z,101664.94
2022-10-18T05:53:45.056Z,101682.00
2022-10-18T05:56:14.598Z,101673.91
2022-10-18T05:58:43.820Z,101683.78
2022-10-18T06:01:12.787Z,101673.91
2022-10-18T06:03:41.881Z,101657.72
2022-10-18T06:06:12.987Z,101662.22
2022-10-18T06:08:43.189Z,101663.13
2022-10-18T06:11:15.987Z,101671.19
2022-10-18T06:13:45.917Z,101664.88
2022-10-18T06:16:17.096Z,101663.13
2022-10-18T06:18:49.786Z,101671.19
2022-10-18T06:21:19.407Z,101680.16
2022-10-18T06:23:50.410Z,101692.69
2022-10-18T06:26:21.256Z,101690.88
2022-10-18T06:28:50.477Z,101683.66
2022-10-18T06:31:21.320Z,101679.16
2022-10-18T06:33:50.640Z,101686.28
2022-10-18T06:36:22.136Z,101690.75
2022-10-18T06:38:52.134Z,101706.84
2022-10-18T06:41:22.886Z,101705.97
2022-10-18T06:43:53.195Z,101702.34
2022-10-18T06:46:22.593Z,101696.78
2022-10-18T06:48:51.583Z,101699.47
2022-10-18T06:51:20.643Z,101693.16
2022-10-18T06:53:59.587Z,101690.53
2022-10-18T06:56:37.203Z,101700.38
2022-10-18T06:59:07.050Z,101709.34
2022-10-18T07:01:36.686Z,101700.38
2022-10-18T07:04:06.254Z,101699.44
2022-10-18T07:06:35.494Z,101700.28
2022-10-18T07:09:04.980Z,101702.94
2022-10-18T07:11:36.018Z,101700.16
2022-10-18T07:14:05.642Z,101708.25
2022-10-18T07:16:35.467Z,101715.34
2022-10-18T07:19:04.623Z,101711.63
2022-10-18T07:21:33.886Z,101711.53
2022-10-18T07:24:02.910Z,101719.56
2022-10-18T07:26:33.336Z,101717.75
2022-10-18T07:29:06.822Z,101721.31
2022-10-18T07:31:38.495Z,101718.53
2022-10-18T07:34:08.319Z,101721.16
2022-10-18T07:36:37.591Z,101716.56
2022-10-18T07:39:06.844Z,101714.75
2022-10-18T07:41:35.831Z,101721.91
2022-10-18T07:44:06.739Z,101726.28
2022-10-18T07:46:36.127Z,101723.53
2022-10-18T07:49:05.429Z,101736.03
2022-10-18T07:51:36.087Z,101737.72
2022-10-18T07:54:05.483Z,101731.41
2022-10-18T07:56:34.688Z,101739.41
2022-10-18T07:59:05.181Z,101740.22
2022-10-18T08:01:35.455Z,101741.09
2022-10-18T08:04:07.451Z,101750.94
2022-10-18T08:06:37.809Z,101744.69
2022-10-18T08:09:07.200Z,101745.53
2022-10-18T08:11:36.658Z,101736.50
2022-10-18T08:14:07.119Z,101732.00
2022-10-18T08:16:36.724Z,101730.13
2022-10-18T08:19:05.479Z,101731.09
2022-10-18T08:21:34.646Z,101726.72
2022-10-18T08:24:03.625Z,101728.53
2022-10-18T08:26:32.807Z,101721.31
2022-10-18T08:29:21.126Z,101712.31
2022-10-18T08:31:52.485Z,101702.38
2022-10-18T08:34:21.698Z,101703.16
2022-10-18T08:36:51.007Z,101705.72
2022-10-18T08:39:20.057Z,101701.13
2022-10-18T08:42:20.292Z,101701.94
2022-10-18T08:44:50.816Z,101691.06
2022-10-18T08:47:24.162Z,101698.13
2022-10-18T08:49:57.594Z,101690.72
2022-10-18T08:52:34.396Z,101695.13
2022-10-18T08:55:08.138Z,101704.91
2022-10-18T08:57:37.558Z,101709.22
2022-10-18T09:00:15.855Z,101707.31
2022-10-18T09:03:01.449Z,101707.19
2022-10-18T09:05:39.169Z,101708.78
2022-10-18T09:08:37.383Z,101695.19
2022-10-18T09:11:20.401Z,101685.06
2022-10-18T09:14:44.228Z,101693.81
2022-10-18T09:17:23.488Z,101700.03
2022-10-18T09:20:04.416Z,101703.53
2022-10-18T09:22:49.679Z,101689.06
2022-10-18T09:25:21.619Z,101687.19
2022-10-18T09:27:55.803Z,101694.34
2022-10-18T09:30:37.581Z,101694.16
2022-10-18T09:33:21.040Z,101686.81
2022-10-18T09:35:57.275Z,101695.75
2022-10-18T09:38:31.916Z,101691.94
2022-10-18T09:41:14.890Z,101688.44
2022-10-18T09:43:51.673Z,101684.81
2022-10-18T09:46:23.222Z,101682.91
2022-10-18T09:48:57.955Z,101677.38
2022-10-18T09:51:34.898Z,101676.31
2022-10-18T09:54:21.688Z,101669.75
2022-10-18T09:56:53.538Z,101678.31
2022-10-18T09:59:35.295Z,101668.41
2022-10-18T10:02:05.067Z,101667.38
2022-10-18T10:04:34.124Z,101674.38
2022-10-18T10:07:08.213Z,101677.69
2022-10-18T10:09:42.832Z,101676.75
2022-10-18T10:12:28.244Z,101669.19
2022-10-18T10:15:18.967Z,101670.94
2022-10-18T10:17:57.378Z,101669.91
2022-10-18T10:20:34.402Z,101668.16
2022-10-18T10:23:15.087Z,101670.03
2022-10-18T10:25:44.733Z,101663.84
2022-10-18T10:28:17.615Z,101671.09
2022-10-18T10:30:47.109Z,101671.16
2022-10-18T10:33:34.666Z,101677.53
2022-10-18T10:36:07.097Z,101677.53
2022-10-18T10:38:37.815Z,101675.63
2022-10-18T10:41:18.508Z,101677.34
2022-10-18T10:43:48.369Z,101679.13
2022-10-18T10:46:19.596Z,101668.31
2022-10-18T10:49:08.426Z,101675.31
2022-10-18T10:51:43.862Z,101665.38
2022-10-18T10:54:18.961Z,101658.22
2022-10-18T10:56:56.020Z,101665.28
2022-10-18T10:59:28.190Z,101669.75
2022-10-18T11:02:21.931Z,101667.97
2022-10-18T11:04:53.281Z,101668.88
2022-10-18T11:07:27.041Z,101669.66
2022-10-18T11:10:03.372Z,101653.34
2022-10-18T11:12:39.326Z,101658.84
2022-10-18T11:15:21.565Z,101650.84
2022-10-18T11:18:02.520Z,101643.66
2022-10-18T11:20:37.086Z,101642.00
2022-10-18T11:23:11.541Z,101641.28
2022-10-18T11:26:12.596Z,101639.53
2022-10-18T11:28:57.846Z,101645.91
2022-10-18T11:31:33.769Z,101636.91
2022-10-18T11:34:25.436Z,101640.50
2022-10-18T11:37:34.674Z,101639.72
2022-10-18T11:39:59.207Z,101639.72
2022-10-18T11:42:39.791Z,101628.91
2022-10-18T11:45:23.952Z,101625.50
2022-10-18T11:48:00.103Z,101622.84
2022-10-18T11:50:37.691Z,101617.69
2022-10-18T11:53:21.619Z,101615.22
2022-10-18T11:56:02.675Z,101616.28
2022-10-18T11:58:47.685Z,101602.81
2022-10-18T12:01:29.115Z,101606.50
2022-10-18T12:04:05.418Z,101601.44
2022-10-18T12:06:38.802Z,101595.13
2022-10-18T12:09:20.665Z,101592.53
2022-10-18T12:11:56.000Z,101601.66
2022-10-18T12:14:31.730Z,101592.84
2022-10-18T12:17:39.680Z,101593.00
2022-10-18T12:19:59.308Z,101582.44
2022-10-18T12:22:36.150Z,101577.25
2022-10-18T12:25:07.508Z,101576.47
2022-10-18T12:27:45.245Z,101569.47
2022-10-18T12:30:25.634Z,101567.81
2022-10-18T12:33:27.313Z,101565.28
2022-10-18T12:36:07.583Z,101563.66
2022-10-18T12:38:38.066Z,101566.41
2022-10-18T12:41:08.073Z,101572.94
2022-10-18T12:43:37.974Z,101566.72
2022-10-18T12:46:13.709Z,101574.13
2022-10-18T12:48:45.563Z,101565.28
2022-10-18T12:51:18.015Z,101557.38
2022-10-18T12:53:48.837Z,101567.44
2022-10-18T12:56:41.980Z,101564.81
2022-10-18T12:59:51.025Z,101539.03
2022-10-18T13:02:31.056Z,101541.94
2022-10-18T13:05:02.552Z,101539.38
2022-10-18T13:07:44.854Z,101538.75
2022-10-18T13:10:41.400Z,101544.28
2022-10-18T13:13:54.635Z,101541.81
2022-10-18T13:16:38.226Z,101537.47
2022-10-18T13:19:24.913Z,101537.63
2022-10-18T13:22:14.357Z,101535.94
2022-10-18T13:24:48.806Z,101542.44
2022-10-18T13:27:42.748Z,101541.63
2022-10-18T13:30:46.580Z,101539.06
2022-10-18T13:33:35.747Z,101525.69
2022-10-18T13:36:23.048Z,101535.59
2022-10-18T13:39:06.012Z,101537.47
2022-10-18T13:42:13.975Z,101541.19
2022-10-18T13:44:44.838Z,101540.41
2022-10-18T13:47:16.259Z,101542.38
2022-10-18T13:50:16.668Z,101542.47
2022-10-18T13:53:07.961Z,101521.03
2022-10-18T13:55:59.964Z,101519.34
2022-10-18T13:58:48.919Z,101513.16
2022-10-18T14:01:33.455Z,101528.50
2022-10-18T14:04:39.929Z,101530.38
2022-10-18T14:07:12.678Z,101525.13
2022-10-18T14:09:56.096Z,101522.56
2022-10-18T14:12:32.159Z,101522.66
2022-10-18T14:15:08.545Z,101520.03
2022-10-18T14:17:43.309Z,101518.34
2022-10-18T14:20:27.256Z,101504.16
2022-10-18T14:23:06.711Z,101498.88
2022-10-18T14:25:40.463Z,101496.25
2022-10-18T14:28:15.479Z,101485.69
2022-10-18T14:30:56.053Z,101491.22
2022-10-18T14:33:32.785Z,101493.06
2022-10-18T14:36:10.413Z,101488.69
2022-10-18T14:38:49.398Z,101479.84
2022-10-18T14:41:23.853Z,101485.31
2022-10-18T14:43:55.189Z,101480.09
2022-10-18T14:46:29.110Z,101478.34
2022-10-18T14:49:02.475Z,101473.97
2022-10-18T14:51:36.579Z,101471.34
2022-10-18T14:54:07.982Z,101468.78
2022-10-18T14:56:42.282Z,101459.09
2022-10-18T14:59:19.373Z,101470.88
2022-10-18T15:01:57.944Z,101470.16
2022-10-18T15:04:32.884Z,101467.63
2022-10-18T15:07:04.512Z,101479.47
2022-10-18T15:09:36.101Z,101475.97
2022-10-18T15:12:08.605Z,101477.06
2022-10-18T15:14:38.403Z,101472.63
2022-10-18T15:17:14.921Z,101466.56
2022-10-18T15:19:59.408Z,101461.34
2022-10-18T15:22:37.866Z,101459.66
2022-10-18T15:25:15.993Z,101453.53
2022-10-18T15:27:48.934Z,101459.06
2022-10-18T15:30:24.106Z,101445.81
2022-10-18T15:32:56.084Z,101437.81
2022-10-18T15:35:29.716Z,101439.72
2022-10-18T15:38:02.542Z,101428.34
2022-10-18T15:40:37.870Z,101432.13
2022-10-18T15:43:36.855Z,101431.53
2022-10-18T15:46:07.446Z,101429.91
2022-10-18T15:48:38.720Z,101425.63
2022-10-18T15:51:09.273Z,101432.13
2022-10-18T15:53:52.651Z,101432.28
2022-10-18T15:56:34.160Z,101419.13
2022-10-18T15:59:08.881Z,101421.13
2022-10-18T16:01:42.977Z,101437.41
2022-10-18T16:04:21.076Z,101447.47
2022-10-18T16:06:51.186Z,101436.88
2022-10-18T16:09:22.673Z,101437.94
2022-10-18T16:11:56.780Z,101440.75
2022-10-18T16:14:29.842Z,101439.16
2022-10-18T16:17:02.985Z,101444.72
2022-10-18T16:19:33.179Z,101455.59
2022-10-18T16:22:06.647Z,101455.81
2022-10-18T16:24:36.452Z,101453.31
2022-10-18T16:27:06.147Z,101448.13
2022-10-18T16:29:37.082Z,101453.56
2022-10-18T16:32:06.662Z,101449.28
2022-10-18T16:34:36.098Z,101452.97
2022-10-18T16:37:06.582Z,101456.81
2022-10-18T16:39:35.848Z,101457.88
2022-10-18T16:42:05.231Z,101464.31
2022-10-18T16:44:35.794Z,101464.41
2022-10-18T16:47:05.292Z,101468.16
2022-10-18T16:49:34.995Z,101471.84
2022-10-18T16:52:04.434Z,101474.72
2022-10-18T16:54:33.784Z,101478.41
2022-10-18T16:57:04.362Z,101473.16
2022-10-18T16:59:33.568Z,101472.50
2022-10-18T17:02:09.086Z,101475.34
2022-10-18T17:04:38.852Z,101474.63
2022-10-18T17:07:10.244Z,101485.47
2022-10-18T17:09:40.234Z,101479.25
2022-10-18T17:12:09.435Z,101476.75
2022-10-18T17:14:38.520Z,101491.09
2022-10-18T17:17:12.925Z,101482.22
2022-10-18T17:19:42.413Z,101485.00
2022-10-18T17:22:11.596Z,101494.94
2022-10-18T17:24:41.618Z,101485.19
2022-10-18T17:27:12.092Z,101479.75
2022-10-18T17:29:42.017Z,101482.44
2022-10-18T17:32:12.624Z,101480.72
2022-10-18T17:34:42.370Z,101481.59
2022-10-18T17:37:11.784Z,101485.19
2022-10-18T17:39:41.309Z,101482.66
2022-10-18T17:42:10.344Z,101479.16
2022-10-18T17:44:39.768Z,101481.91
2022-10-18T17:47:09.221Z,101487.44
2022-10-18T17:49:40.079Z,101490.38
2022-10-18T17:52:09.447Z,101482.31
2022-10-18T17:54:38.623Z,101472.66
2022-10-18T17:57:11.189Z,101470.13
2022-10-18T17:59:41.404Z,101466.59
2022-10-18T18:02:12.101Z,101466.72
2022-10-18T18:04:43.008Z,101469.56
2022-10-18T18:07:12.339Z,101469.72
2022-10-18T18:09:41.812Z,101469.78
2022-10-18T18:12:12.454Z,101457.25
2022-10-18T18:14:41.956Z,101456.44
2022-10-18T18:17:11.682Z,101462.88
2022-10-18T18:19:42.475Z,101473.63
2022-10-18T18:22:12.045Z,101468.41
2022-10-18T18:24:41.600Z,101472.09
2022-10-18T18:27:11.531Z,101473.09
2022-10-18T18:29:41.836Z,101465.03
2022-10-18T18:32:11.172Z,101478.44
2022-10-18T18:34:41.849Z,101474.16
2022-10-18T18:37:11.499Z,101473.41
2022-10-18T18:39:43.726Z,101464.63
2022-10-18T18:42:13.360Z,101466.56
2022-10-18T18:44:46.015Z,101470.22
2022-10-18T18:47:15.408Z,101470.28
2022-10-18T18:49:46.295Z,101462.31
2022-10-18T18:52:15.527Z,101467.69
2022-10-18T18:54:45.350Z,101462.31
2022-10-18T18:57:14.847Z,101459.72
2022-10-18T18:59:44.251Z,101452.56
2022-10-18T19:02:14.125Z,101449.00
2022-10-18T19:04:43.657Z,101448.00
2022-10-18T19:07:14.599Z,101440.84
2022-10-18T19:09:44.987Z,101429.31
2022-10-18T19:12:20.429Z,101431.94
2022-10-18T19:14:52.158Z,101421.28
2022-10-18T19:17:23.830Z,101423.94
2022-10-18T19:19:54.163Z,101423.88
2022-10-18T19:22:27.468Z,101423.88
2022-10-18T19:24:56.966Z,101431.94
2022-10-18T19:27:27.473Z,101439.03
2022-10-18T19:29:56.971Z,101434.53
2022-10-18T19:32:26.213Z,101431.78
2022-10-18T19:34:55.629Z,101433.56
2022-10-18T19:37:26.238Z,101431.78
2022-10-18T19:39:56.164Z,101422.84
2022-10-18T19:42:31.590Z,101437.06
2022-10-18T19:45:02.294Z,101429.03
2022-10-18T19:47:33.197Z,101428.03
2022-10-18T19:50:03.717Z,101420.75
2022-10-18T19:52:36.735Z,101427.81
2022-10-18T19:55:11.645Z,101426.91
2022-10-18T19:57:42.168Z,101428.63
2022-10-18T20:00:18.678Z,101433.91
2022-10-18T20:02:48.764Z,101427.66
2022-10-18T20:05:18.316Z,101426.69
2022-10-18T20:07:48.735Z,101421.19
2022-10-18T20:10:18.209Z,101422.94
2022-10-18T20:12:47.261Z,101422.88
2022-10-18T20:15:16.572Z,101429.94
2022-10-18T20:17:50.142Z,101421.84
2022-10-18T20:20:19.666Z,101426.31
2022-10-18T20:22:50.292Z,101424.44
2022-10-18T20:25:19.741Z,101422.66
2022-10-18T20:27:49.696Z,101413.69
2022-10-18T20:30:19.589Z,101408.25
2022-10-18T20:32:48.836Z,101408.19
2022-10-18T20:35:18.350Z,101406.31
2022-10-18T20:37:47.323Z,101400.94
2022-10-18T20:40:18.353Z,101395.50
2022-10-18T20:42:48.397Z,101393.69
2022-10-18T20:45:17.949Z,101394.53
2022-10-18T20:47:47.076Z,101397.13
2022-10-18T20:50:16.479Z,101400.69
2022-10-18T20:52:51.106Z,101396.06
2022-10-18T20:55:22.274Z,101390.72
2022-10-18T20:57:51.548Z,101401.38
2022-10-18T21:00:20.909Z,101399.56
2022-10-18T21:02:50.172Z,101390.59
2022-10-18T21:05:19.531Z,101395.97
2022-10-18T21:07:48.796Z,101390.59
2022-10-18T21:10:18.468Z,101393.28
2022-10-18T21:12:50.457Z,101387.03
2022-10-18T21:15:20.087Z,101387.09
2022-10-18T21:17:52.339Z,101383.63
2022-10-18T21:20:21.933Z,101389.00
2022-10-18T21:22:52.471Z,101377.44
2022-10-18T21:25:21.773Z,101385.50
2022-10-18T21:27:52.369Z,101373.97
2022-10-18T21:30:21.852Z,101373.09
2022-10-18T21:32:52.641Z,101375.75
2022-10-18T21:35:22.086Z,101373.09
2022-10-18T21:37:51.327Z,101355.25
2022-10-18T21:40:20.743Z,101348.03
2022-10-18T21:42:51.365Z,101351.59
2022-10-18T21:45:21.039Z,101360.53
2022-10-18T21:47:50.161Z,101364.13
2022-10-18T21:50:19.474Z,101348.03
2022-10-18T21:52:49.410Z,101341.84
2022-10-18T21:55:18.916Z,101340.09
2022-10-18T21:57:48.141Z,101332.00
2022-10-18T22:00:18.878Z,101333.81
2022-10-18T22:02:48.193Z,101324.94
2022-10-18T22:05:17.617Z,101325.03
2022-10-18T22:07:46.824Z,101323.25
2022-10-18T22:10:16.403Z,101317.94
2022-10-18T22:12:45.561Z,101302.84
2022-10-18T22:15:14.832Z,101313.69
2022-10-18T22:17:45.550Z,101315.53
2022-10-18T22:20:15.022Z,101319.25
2022-10-18T22:22:44.274Z,101318.41
2022-10-18T22:25:13.647Z,101314.06
2022-10-18T22:27:42.871Z,101314.09
2022-10-18T22:30:13.092Z,101310.56
2022-10-18T22:32:42.407Z,101311.41
2022-10-18T22:35:12.853Z,101309.75
2022-10-18T22:37:42.072Z,101305.19
2022-10-18T22:40:12.111Z,101310.41
2022-10-18T22:42:41.357Z,101296.09
2022-10-18T22:45:11.304Z,101293.44
2022-10-18T22:47:40.491Z,101302.38
2022-10-18T22:50:10.743Z,101297.00
2022-10-18T22:52:41.350Z,101297.81
2022-10-18T22:55:10.964Z,101300.47
2022-10-18T22:57:40.083Z,101305.84
2022-10-18T23:00:10.667Z,101305.00
2022-10-18T23:02:39.866Z,101305.00
2022-10-18T23:05:09.733Z,101303.19
2022-10-18T23:07:40.395Z,101312.13
2022-10-18T23:10:10.307Z,101307.63
2022-10-18T23:12:39.561Z,101306.69
2022-10-18T23:15:09.979Z,101313.03
2022-10-18T23:17:39.272Z,101311.41
2022-10-18T23:20:09.495Z,101312.19
2022-10-18T23:22:40.099Z,101309.66
2022-10-18T23:25:10.173Z,101312.19
2022-10-18T23:27:39.444Z,101317.53
2022-10-18T23:30:09.112Z,101312.28
2022-10-18T23:32:40.286Z,101313.41
2022-10-18T23:35:10.489Z,101309.09
2022-10-18T23:37:41.118Z,101313.50
2022-10-18T23:40:11.989Z,101309.13
2022-10-18T23:42:41.375Z,101314.63
2022-10-18T23:45:11.440Z,101322.72
2022-10-18T23:47:40.641Z,101315.59
2022-10-18T23:50:10.720Z,101313.03
2022-10-18T23:52:41.356Z,101308.47
2022-10-18T23:55:11.023Z,101315.72
2022-10-18T23:57:42.420Z,101319.22
